Latest Weather Observations for Dunalley

IDT60801

Issued at 9:05 am EDT Wednesday 26 November 2014 (issued every 30 minutes, with the page automatically refreshed every 10 minutes)

About weather observations | Map of weather stations | Latest weather observations for TAS | Other Formats
Station Details ID: 094254 Name: DUNALLEY (STROUD POINT) Lat: -42.90 Lon: 147.79 Height: 12.43 m
Data from the previous 72 hours. | See also: Recent months at Dunalley
Date/Time
EDT
Temp
°C
App
Temp
°C
Dew
Point
Rel
Hum
%
Delta-T
°C
Wind Press
QNH
hPa
Press
MSL
hPa
Rain
since 9 am
mm
Dir
 
Spd
km/h
Gust
km/h
Spd
kts
Gust
kts
26/09:00am 13.9 4.1 5.5 57 4.0 WSW 46 54 25 29 1012.1 1012.1 1.4
26/08:30am 13.5 3.1 5.9 60 3.6 WSW 50 61 27 33 1011.6 1011.6 1.4
26/08:00am 12.7 2.6 5.8 63 3.2 WSW 48 57 26 31 1011.5 1011.5 1.4
26/07:30am 12.5 1.2 5.2 61 3.4 WSW 54 69 29 37 1011.0 1011.0 1.4
26/07:22am 12.6 2.3 4.6 58 3.7 WSW 48 67 26 36 1010.8 1010.8 1.4
26/07:00am 12.6 3.4 5.3 61 3.4 WSW 43 52 23 28 1010.8 1010.8 1.4
26/06:30am 12.4 1.4 5.1 61 3.4 WSW 52 65 28 35 1010.6 1010.6 1.4
26/06:00am 12.4 1.9 5.6 63 3.2 WSW 50 61 27 33 1010.1 1010.1 1.4
26/05:30am 12.5 4.5 7.4 71 2.5 SW 39 50 21 27 1009.7 1009.7 1.4
26/05:00am 12.5 6.0 8.0 74 2.2 SW 32 41 17 22 1009.2 1009.2 1.4
26/04:30am 12.4 6.4 8.7 78 1.8 WSW 30 39 16 21 1008.8 1008.8 1.4
26/04:00am 11.1 7.8 9.7 91 0.7 W 17 24 9 13 1008.7 1008.7 1.2
26/03:30am 11.2 8.2 9.3 88 1.0 W 15 19 8 10 1008.6 1008.6 1.0
26/03:00am 11.4 7.2 8.4 82 1.5 WNW 20 32 11 17 1008.5 1008.5 0.8
26/02:30am 12.2 6.3 7.5 73 2.3 WNW 28 39 15 21 1008.3 1008.3 0.6
26/02:00am 12.9 9.2 6.3 64 3.1 NNW 15 32 8 17 1008.3 1008.3 0.6
26/01:30am 11.9 8.5 5.8 66 2.8 NNW 13 24 7 13 1008.6 1008.6 0.6
26/01:00am 11.7 7.9 5.6 66 2.8 NNW 15 24 8 13 1008.8 1008.8 0.6
26/12:30am 12.4 7.6 5.6 63 3.2 NNW 20 30 11 16 1009.3 1009.3 0.6
26/12:00am 12.5 8.6 5.4 62 3.3 NW 15 24 8 13 1010.0 1010.0 0.6
 
Date/Time
EDT
Temp
°C
App
Temp
°C
Dew
Point
Rel
Hum
%
Delta-T
°C
Wind Press
QNH
hPa
Press
MSL
hPa
Rain
since 9 am
mm
Dir
 
Spd
km/h
Gust
km/h
Spd
kts
Gust
kts
25/11:30pm 12.4 7.5 5.3 62 3.3 NW 20 30 11 16 1010.3 1010.3 0.6
25/11:00pm 12.4 7.4 4.6 59 3.6 NW 20 32 11 17 1010.6 1010.6 0.6
25/10:30pm 12.6 6.8 4.6 58 3.7 WNW 24 35 13 19 1010.6 1010.6 0.6
25/10:00pm 12.7 6.9 4.4 57 3.8 WNW 24 33 13 18 1010.7 1010.7 0.6
25/09:30pm 12.8 7.3 4.0 55 4.0 WNW 22 35 12 19 1010.9 1010.9 0.6
25/09:00pm 12.9 7.3 3.6 53 4.2 W 22 35 12 19 1010.6 1010.6 0.6
25/08:30pm 12.9 8.2 3.3 52 4.3 WNW 17 26 9 14 1010.4 1010.4 0.6
25/08:00pm 13.4 7.2 6.3 62 3.4 W 28 33 15 18 1010.3 1010.3 0.6
25/07:30pm 13.3 6.2 6.6 64 3.2 W 33 37 18 20 1010.2 1010.2 0.6
25/07:00pm 13.3 2.4 7.1 66 3.0 WSW 54 63 29 34 1009.8 1009.8 0.6
25/06:57pm 13.4 2.1 7.0 65 3.1 WSW 56 63 30 34 1009.7 1009.7 0.6
25/06:30pm 14.1 6.6 6.5 60 3.7 WSW 35 43 19 23 1009.2 1009.2 0.6
25/06:00pm 14.4 7.8 7.7 64 3.3 WSW 32 39 17 21 1008.8 1008.8 0.6
25/05:30pm 14.0 6.3 8.8 71 2.6 WSW 39 46 21 25 1008.9 1008.9 0.6
25/05:00pm 13.7 7.0 8.1 69 2.8 WSW 33 50 18 27 1008.3 1008.3 0.4
25/04:59pm 13.7 7.4 7.5 66 3.0 W 30 37 16 20 1008.4 1008.4 0.4
25/04:30pm 14.5 6.4 8.7 68 2.9 SW 41 48 22 26 1007.9 1007.9 0.4
25/04:00pm 15.8 10.5 9.7 67 3.2 WSW 28 37 15 20 1007.8 1007.8 0.4
25/03:30pm 14.7 8.3 9.3 70 2.8 WSW 33 39 18 21 1007.6 1007.6 0.4
25/03:04pm 13.6 7.7 9.1 74 2.3 W 30 48 16 26 1007.6 1007.6 0.4
25/03:00pm 14.0 7.3 9.8 76 2.2 W 35 48 19 26 1007.6 1007.6 0.4
25/02:30pm 15.9 8.5 8.4 61 3.8 WSW 37 46 20 25 1007.0 1007.0 0.0
25/02:00pm 17.5 8.9 8.9 57 4.5 WSW 44 54 24 29 1006.4 1006.4 0.0
25/01:49pm 17.2 10.0 7.8 54 4.8 WSW 35 54 19 29 1006.3 1006.3 0.0
25/01:30pm 16.0 8.3 7.2 56 4.4 WSW 37 46 20 25 1006.4 1006.4 0.0
25/01:00pm 16.2 7.2 7.4 56 4.4 WSW 44 54 24 29 1006.1 1006.1 0.0
25/12:30pm 16.4 7.6 7.9 57 4.3 WSW 44 57 24 31 1005.9 1005.9 0.0
25/12:00pm 16.2 7.4 8.2 59 4.1 WSW 44 56 24 30 1005.8 1005.8 0.0
25/11:30am 15.3 5.4 6.8 57 4.2 WSW 48 59 26 32 1005.8 1005.8 0.0
25/11:00am 15.3 4.5 7.6 60 3.8 WSW 54 61 29 33 1005.5 1005.5 0.0
25/10:30am 14.8 4.5 6.4 57 4.1 WSW 50 61 27 33 1005.2 1005.2 0.0
25/10:00am 14.7 3.3 7.7 63 3.5 WSW 57 72 31 39 1004.8 1004.8 0.0
25/09:30am 14.4 2.2 7.2 62 3.5 WSW 61 74 33 40 1004.1 1004.1 0.0
25/09:00am 14.4 2.5 7.2 62 3.5 WSW 59 72 32 39 1004.1 1004.1 3.4
25/08:30am 14.1 1.4 6.7 61 3.6 WSW 63 80 34 43 1003.5 1003.5 3.4
25/08:00am 14.0 3.8 7.1 63 3.4 WSW 50 69 27 37 1002.9 1002.9 3.4
25/07:30am 13.7 2.4 7.2 65 3.2 WSW 56 69 30 37 1002.5 1002.5 3.4
25/07:18am 13.8 3.4 7.6 66 3.0 WSW 52 70 28 38 1002.4 1002.4 3.4
25/07:00am 13.5 1.6 6.8 64 3.3 WSW 59 70 32 38 1002.1 1002.1 3.4
25/06:30am 13.2 1.9 7.2 67 2.9 WSW 56 65 30 35 1001.8 1001.8 3.4
25/06:04am 13.0 2.9 7.5 69 2.7 WSW 50 69 27 37 1001.0 1001.0 3.4
25/06:00am 13.0 2.9 7.5 69 2.7 WSW 50 56 27 30 1001.0 1001.0 3.4
25/05:50am 12.5 6.0 6.5 67 2.9 W 30 48 16 26 1001.1 1001.1 3.4
25/05:30am 12.1 6.9 5.7 65 3.0 W 22 35 12 19 1001.0 1001.0 3.4
25/05:00am 11.9 6.4 6.0 67 2.8 W 24 37 13 20 1000.7 1000.7 3.4
25/04:30am 11.5 6.7 5.4 66 2.8 WNW 20 32 11 17 1000.3 1000.3 3.4
25/04:00am 11.6 6.0 5.5 66 2.8 NW 24 39 13 21 1000.5 1000.5 3.4
25/03:30am 11.4 4.6 5.1 65 2.9 WNW 30 39 16 21 1000.6 1000.6 3.4
25/03:01am 11.3 4.1 5.0 65 2.9 WNW 32 52 17 28 1000.3 1000.3 3.4
25/03:00am 11.1 3.9 5.0 66 2.8 WNW 32 44 17 24 1000.3 1000.3 3.4
25/02:30am 11.1 3.9 5.0 66 2.8 WNW 32 44 17 24 1000.5 1000.5 3.4
25/02:00am 10.9 4.4 4.8 66 2.8 WNW 28 41 15 22 1000.7 1000.7 3.4
25/01:30am 10.9 5.9 4.8 66 2.8 NW 20 30 11 16 1001.3 1001.3 3.4
25/01:00am 11.3 5.2 4.7 64 3.0 WNW 26 35 14 19 1001.6 1001.6 3.4
25/12:30am 11.2 6.0 5.3 67 2.7 WNW 22 35 12 19 1001.8 1001.8 3.4
25/12:00am 11.1 6.2 5.2 67 2.7 NW 20 28 11 15 1002.0 1002.0 3.4
 
Date/Time
EDT
Temp
°C
App
Temp
°C
Dew
Point
Rel
Hum
%
Delta-T
°C
Wind Press
QNH
hPa
Press
MSL
hPa
Rain
since 9 am
mm
Dir
 
Spd
km/h
Gust
km/h
Spd
kts
Gust
kts
24/11:30pm 11.2 6.4 5.5 68 2.6 WNW 20 30 11 16 1002.5 1002.5 3.4
24/11:00pm 11.9 6.7 5.3 64 3.1 WNW 22 33 12 18 1002.5 1002.5 3.4
24/10:30pm 12.0 6.4 5.2 63 3.1 WNW 24 32 13 17 1002.4 1002.4 3.4
24/10:00pm 12.3 6.8 5.9 65 3.0 WNW 24 35 13 19 1002.6 1002.6 3.4
24/09:30pm 12.7 8.9 7.4 70 2.6 W 17 32 9 17 1002.3 1002.3 3.4
24/09:00pm 13.5 12.2 12.6 94 0.5 ENE 11 15 6 8 1002.1 1002.1 3.4
24/08:30pm 13.3 12.9 12.5 95 0.4 ENE 6 9 3 5 1001.9 1001.9 3.4
24/08:00pm 13.5 13.3 12.9 96 0.3 ENE 6 7 3 4 1002.0 1002.0 3.4
24/07:30pm 13.5 13.3 12.9 96 0.3 ENE 6 7 3 4 1001.6 1001.6 2.8
24/07:00pm 13.5 12.6 12.7 95 0.4 ENE 9 15 5 8 1001.5 1001.5 2.8
24/06:30pm 13.8 13.7 13.2 96 0.3 ENE 6 7 3 4 1001.2 1001.2 2.8
24/06:00pm 13.4 13.4 12.5 94 0.5 ENE 4 4 2 2 1001.9 1001.9 2.6
24/05:30pm 13.3 14.0 12.2 93 0.6 CALM 0 0 0 0 1002.1 1002.1 2.4
24/05:00pm 13.5 12.5 12.4 93 0.6 ENE 9 11 5 6 1002.5 1002.5 2.2
24/04:30pm 14.2 13.6 12.2 88 1.1 ENE 7 9 4 5 1002.6 1002.6 1.2
24/04:00pm 14.3 12.7 12.7 90 0.9 ENE 13 17 7 9 1003.0 1003.0 1.2
24/03:30pm 14.9 11.8 12.2 84 1.5 ENE 20 24 11 13 1003.3 1003.3 1.0
24/03:00pm 15.0 11.6 11.4 79 1.9 ENE 20 28 11 15 1003.5 1003.5 1.0
24/02:30pm 15.4 13.6 10.8 74 2.4 NE 11 17 6 9 1004.3 1004.3 1.0
24/02:00pm 14.9 13.2 11.1 78 2.0 ENE 11 20 6 11 1004.8 1004.8 1.0
24/01:30pm 14.6 11.7 11.0 79 1.9 ENE 17 22 9 12 1005.4 1005.4 1.0
24/01:00pm 14.6 9.9 10.8 78 2.0 NE 26 32 14 17 1005.8 1005.8 1.0
24/12:30pm 14.5 11.6 10.9 79 1.9 NNE 17 20 9 11 1006.0 1006.0 1.0
24/12:00pm 14.0 10.5 10.8 81 1.7 NE 20 26 11 14 1006.8 1006.8 1.0
24/11:30am 13.9 11.4 11.2 84 1.4 NE 15 22 8 12 1007.5 1007.5 1.0
24/11:00am 14.0 12.1 10.4 79 1.9 NE 11 15 6 8 1008.4 1008.4 0.6
24/10:30am 14.2 12.0 9.4 73 2.5 ENE 11 15 6 8 1008.5 1008.5 0.4
24/10:00am 14.7 11.7 10.5 76 2.2 ENE 17 20 9 11 1007.8 1007.8 0.2
24/09:30am 14.1 10.6 10.9 81 1.7 NE 20 22 11 12 1008.6 1008.6 0.2
24/09:00am 14.4 12.9 10.6 78 2.0 NE 9 15 5 8 1008.6 1008.6 0.0
24/08:30am 14.3 13.8 10.9 80 1.8 NNE 4 4 2 2 1009.0 1009.0 0.0
24/08:00am 14.2 13.9 11.5 84 1.4 NNE 4 6 2 3 1008.5 1008.5 0.0
24/07:30am 13.7 13.6 12.1 90 0.9 NNE 4 9 2 5 1008.4 1008.4 0.0
24/07:00am 13.1 12.3 11.0 87 1.1 NNE 6 9 3 5 1008.6 1008.6 0.0
24/06:30am 12.6 11.7 11.2 91 0.7 NNE 7 11 4 6 1008.9 1008.9 0.0
24/06:00am 12.5 11.3 11.6 94 0.5 NNE 9 15 5 8 1008.7 1008.7 0.0
24/05:30am 10.9 9.6 9.3 90 0.8 NNE 6 9 3 5 1009.2 1009.2 0.0
24/05:00am 10.9 9.6 9.8 93 0.6 NNE 7 11 4 6 1009.2 1009.2 0.0
24/04:30am 10.5 9.1 9.6 94 0.5 NNE 7 9 4 5 1009.3 1009.3 0.0
24/04:00am 11.4 10.3 10.6 95 0.4 NNE 7 11 4 6 1009.3 1009.3 0.0
24/03:30am 11.9 11.2 11.4 97 0.3 NNE 6 7 3 4 1009.7 1009.7 0.0
24/03:00am 12.9 12.5 12.3 96 0.3 NE 6 11 3 6 1009.8 1009.8 0.0
24/02:30am 13.1 11.0 12.5 96 0.3 NNE 15 17 8 9 1010.0 1010.0 0.0
24/02:00am 13.3 11.3 12.7 96 0.3 NNE 15 19 8 10 1010.1 1010.1 0.0
24/01:30am 13.5 11.1 12.7 95 0.4 NNE 17 19 9 10 1010.5 1010.5 0.0
24/01:00am 13.9 11.6 13.1 95 0.4 NE 17 20 9 11 1010.8 1010.8 0.0
24/12:30am 14.1 11.8 13.0 93 0.6 NE 17 22 9 12 1011.4 1011.4 0.0
24/12:00am 14.3 12.5 13.2 93 0.6 NE 15 20 8 11 1011.6 1011.6 0.0
 
Date/Time
EDT
Temp
°C
App
Temp
°C
Dew
Point
Rel
Hum
%
Delta-T
°C
Wind Press
QNH
hPa
Press
MSL
hPa
Rain
since 9 am
mm
Dir
 
Spd
km/h
Gust
km/h
Spd
kts
Gust
kts
23/11:30pm 14.3 14.0 13.2 93 0.6 NNE 7 15 4 8 1011.9 1011.9 0.0
23/11:00pm 14.4 10.4 13.1 92 0.7 NE 26 32 14 17 1011.8 1011.8 0.0
23/10:30pm 14.9 9.8 13.1 89 1.0 NE 32 41 17 22 1011.8 1011.8 0.0
23/10:00pm 15.1 9.3 12.8 86 1.3 NE 35 41 19 22 1011.6 1011.6 0.0
23/09:30pm 15.1 8.9 12.6 85 1.4 NE 37 44 20 24 1011.5 1011.5 0.0
23/09:00pm 15.1 9.6 12.4 84 1.5 ENE 33 44 18 24 1011.2 1011.2 0.0
23/08:30pm 15.2 8.6 12.5 84 1.5 ENE 39 46 21 25 1011.1 1011.1 0.0
23/08:00pm 15.2 10.2 12.3 83 1.6 ENE 30 39 16 21 1011.0 1011.0 0.0
23/07:30pm 15.3 9.4 12.4 83 1.6 ENE 35 43 19 23 1010.8 1010.8 0.0
23/07:00pm 15.4 9.1 12.2 81 1.7 ENE 37 48 20 26 1010.2 1010.2 0.0
23/06:30pm 15.6 9.2 12.0 79 2.0 ENE 37 46 20 25 1009.9 1009.9 0.0
23/06:00pm 15.9 9.5 11.9 77 2.2 ENE 37 46 20 25 1009.7 1009.7 0.0
23/05:30pm 16.5 10.1 11.9 74 2.5 ENE 37 48 20 26 1009.3 1009.3 0.0
23/05:00pm 16.9 10.5 12.0 73 2.7 ENE 37 48 20 26 1009.0 1009.0 0.0
23/04:30pm 17.4 11.1 12.3 72 2.8 ENE 37 48 20 26 1008.9 1008.9 0.0
23/04:00pm 17.5 11.0 11.8 69 3.1 ENE 37 50 20 27 1008.7 1008.7 0.0
23/03:30pm 17.8 11.6 11.4 66 3.5 ENE 35 43 19 23 1008.8 1008.8 0.0
23/03:00pm 18.1 12.0 11.7 66 3.5 NE 35 48 19 26 1008.8 1008.8 0.0
23/02:30pm 18.9 13.3 11.5 62 4.1 NE 32 41 17 22 1008.8 1008.8 0.0
23/02:00pm 19.1 14.8 12.1 64 3.9 ENE 26 33 14 18 1008.8 1008.8 0.0
23/01:30pm 18.8 13.3 11.9 64 3.8 NE 32 37 17 20 1008.7 1008.7 0.0
23/01:00pm 19.8 16.3 13.5 67 3.6 NE 24 30 13 16 1008.4 1008.4 0.0
23/12:30pm 19.9 18.9 11.1 57 4.8 SW 7 9 4 5 1008.6 1008.6 0.0
23/12:00pm 19.9 18.0 8.9 49 5.8 SW 9 13 5 7 1008.6 1008.6 0.0
23/11:30am 18.9 16.5 8.8 52 5.3 SW 11 15 6 8 1008.6 1008.6 0.0
23/11:00am 18.4 15.4 9.2 55 4.8 WSW 15 19 8 10 1008.5 1008.5 0.0
23/10:30am 18.6 14.9 10.2 58 4.5 WSW 20 24 11 13 1008.4 1008.4 0.0
23/10:00am 18.1 13.9 9.7 58 4.4 WSW 22 28 12 15 1008.1 1008.1 0.0
23/09:30am 18.2 13.2 7.9 51 5.3 W 24 30 13 16 1007.8 1007.8 0.0

Other Formats:

Comma delimited format used in spreadsheet applications
http://www.bom.gov.au/fwo/IDT60801/IDT60801.94951.axf

JavaScript Object Notation format (JSON) in row-major order
http://www.bom.gov.au/fwo/IDT60801/IDT60801.94951.json